TimeCDT,TemperatureF,Dew PointF,Humidity,Sea Level PressureIn,VisibilityMPH,Wind Direction,Wind SpeedMPH,Gust SpeedMPH,PrecipitationIn,Events,Conditions,WindDirDegrees,DateUTC
12:53 AM,72.0,66.9,84,30.04,10.0,Calm,Calm,-,N/A,,Clear,0,2013-07-26 05:53:00
1:53 AM,70.0,66.9,90,30.04,10.0,North,3.5,-,N/A,,Clear,350,2013-07-26 06:53:00
2:53 AM,72.0,66.0,81,30.02,10.0,Calm,Calm,-,N/A,,Clear,0,2013-07-26 07:53:00
3:53 AM,69.1,64.9,87,30.03,10.0,Calm,Calm,-,N/A,,Clear,0,2013-07-26 08:53:00
4:53 AM,70.0,64.9,84,30.03,10.0,NNE,3.5,-,N/A,,Clear,20,2013-07-26 09:53:00
5:53 AM,68.0,64.9,90,30.05,10.0,NNW,4.6,-,N/A,,Clear,330,2013-07-26 10:53:00
6:53 AM,70.0,66.0,87,30.05,10.0,Calm,Calm,-,N/A,,Clear,0,2013-07-26 11:53:00
7:53 AM,73.0,66.0,79,30.06,10.0,Calm,Calm,-,N/A,,Clear,0,2013-07-26 12:53:00
8:53 AM,75.0,68.0,79,30.07,10.0,Calm,Calm,-,N/A,,Clear,0,2013-07-26 13:53:00
9:53 AM,81.0,66.9,62,30.07,10.0,Calm,Calm,-,N/A,,Clear,0,2013-07-26 14:53:00
10:53 AM,82.9,66.0,56,30.07,10.0,WSW,3.5,-,N/A,,Clear,240,2013-07-26 15:53:00
11:53 AM,84.9,66.0,53,30.07,10.0,Calm,Calm,-,N/A,,Clear,0,2013-07-26 16:53:00
12:53 PM,87.1,66.0,49,30.05,10.0,NW,6.9,-,N/A,,Clear,320,2013-07-26 17:53:00
1:53 PM,88.0,69.1,53,30.03,10.0,WNW,3.5,-,N/A,,Clear,300,2013-07-26 18:53:00
2:53 PM,87.1,68.0,53,30.02,10.0,West,9.2,-,N/A,,Clear,260,2013-07-26 19:53:00
3:53 PM,89.1,69.1,52,30.00,10.0,West,5.8,-,N/A,,Clear,260,2013-07-26 20:53:00
4:53 PM,88.0,70.0,55,29.99,10.0,SW,3.5,-,N/A,,Clear,230,2013-07-26 21:53:00
5:53 PM,89.1,69.1,52,29.97,10.0,NNW,3.5,-,N/A,,Clear,330,2013-07-26 22:53:00
6:53 PM,87.1,69.1,55,29.98,10.0,Calm,Calm,-,N/A,,Clear,0,2013-07-26 23:53:00
7:53 PM,82.0,72.0,71,29.96,10.0,Calm,Calm,-,N/A,,Clear,0,2013-07-27 00:53:00
8:53 PM,80.1,71.1,74,29.96,10.0,Calm,Calm,-,N/A,,Partly Cloudy,0,2013-07-27 01:53:00
9:53 PM,80.1,71.1,74,29.96,10.0,Calm,Calm,-,N/A,,Scattered Clouds,0,2013-07-27 02:53:00
10:53 PM,79.0,71.1,77,29.97,10.0,SSE,3.5,-,N/A,,Clear,160,2013-07-27 03:53:00
11:53 PM,78.1,72.0,81,29.96,10.0,Calm,Calm,-,N/A,,Clear,0,2013-07-27 04:53:00